Latest Coastal Weather Observations for Double Island Point

IDQ60701

Issued at 12:22 am EST Saturday 17 April 2021 (issued every 10 minutes, with the page automatically refreshed every 10 minutes)

About coastal observations | Map of coastal stations | Coastal observations for QLD | Marine services | Other Formats
Station Details ID: 040068 Name: DOUBLE ISLAND POINT LIGHTHOUSE Lat: -25.93 Lon: 153.19 Height: 95.64 m
Data from the previous 72 hours. | See also: Recent months at Double Island Point
Date/Time
EST
Wind Sea
Height
m
Swell Vis
km
Cloud Weather Temp
°C
Press
MSL
hPa
Rain since
9am
mm
Dir  Spd
kts
Gust
kts
Height
m
Period
s
Dir
17/12:00am E 15 17 - - - - - - - 22.8 1018.3 0.0
 
Date/Time
EST
Wind Sea
Height
m
Swell Vis
km
Cloud Weather Temp
°C
Press
MSL
hPa
Rain since
9am
mm
Dir  Spd
kts
Gust
kts
Height
m
Period
s
Dir
16/11:30pm E 16 19 - - - - - - - 22.9 1018.3 0.0
16/11:00pm E 15 17 - - - - - - - 22.8 1018.4 0.0
16/10:30pm E 15 19 - - - - - - - 22.9 1018.6 0.0
16/10:00pm E 15 17 - - - - - - - 22.9 1018.7 0.0
16/09:30pm E 15 17 - - - - - - - 22.9 1018.7 0.0
16/09:00pm E 14 16 - - - - - - - 22.9 1018.7 0.0
16/08:30pm E 13 15 - - - - - - - 23.0 1018.4 0.0
16/08:00pm E 12 14 - - - - - - - 22.9 1018.0 0.0
16/07:30pm E 11 13 - - - - - - - 22.9 1017.7 0.0
16/07:00pm ENE 11 13 - - - - - - - 23.2 1017.1 0.0
16/06:30pm E 10 12 - - - - - - - 23.2 1016.8 0.0
16/06:00pm ENE 10 11 - - - - - - - 23.2 1016.4 0.0
16/05:30pm ENE 8 11 - - - - - - - 23.2 1016.3 0.0
16/05:00pm ENE 9 11 - - - - - - - 23.6 1016.0 0.0
16/04:30pm ENE 11 13 - - - - - - - 23.9 1015.6 0.0
16/04:00pm E 9 11 - - - - - - - 24.4 1015.4 0.0
16/03:30pm E 9 10 - - - - - - - 24.7 1015.2 0.0
16/03:00pm ENE 7 9 - - - - - - - 24.8 1015.2 0.0
16/02:30pm NE 7 9 - - - - - - - 25.4 1015.2 0.0
16/02:00pm NE 5 8 - - - - - - - 26.7 1015.1 0.0
16/01:30pm NE 6 9 - - - - - - - 28.4 1015.3 0.0
16/01:00pm NNE 6 10 - - - - - - - 28.4 1015.5 0.0
16/12:30pm NNE 8 10 - - - - - - - 28.0 1015.9 0.0
16/12:00pm N 3 7 - - - - - - - 27.4 1016.3 0.0
16/11:30am NNW 3 4 - - - - - - - 26.9 1016.7 0.0
16/11:00am NNW 4 7 - - - - - - - 27.2 1017.1 0.0
16/10:30am NNW 5 8 - - - - - - - 26.1 1017.4 0.0
16/10:00am NW 7 10 - - - - - - - 25.0 1017.7 0.0
16/09:30am NW 9 11 - - - - - - - 23.7 1017.7 0.0
16/09:00am NW 7 11 - - - - - - - 23.5 1017.7 0.0
16/08:30am NW 8 9 - - - - - - - 22.7 1017.7 0.0
16/08:00am NW 7 10 - - - - - - - 22.5 1017.4 0.0
16/07:30am NNW 7 9 - - - - - - - 22.3 1017.0 0.0
16/07:00am NW 7 8 - - - - - - - 21.4 1016.8 0.0
16/06:30am NW 7 9 - - - - - - - 20.8 1016.3 0.0
16/06:00am WNW 8 9 - - - - - - - 20.6 1016.1 0.0
16/05:30am WNW 8 9 - - - - - - - 20.8 1015.8 0.0
16/05:00am WNW 9 11 - - - - - - - 20.9 1015.6 0.0
16/04:30am WNW 9 11 - - - - - - - 20.9 1015.3 0.0
16/04:00am NW 10 12 - - - - - - - 20.6 1015.1 0.0
16/03:30am NW 8 10 - - - - - - - 20.6 1014.8 0.0
16/03:00am NW 8 11 - - - - - - - 20.7 1014.8 0.0
16/02:30am NW 9 10 - - - - - - - 20.7 1014.9 0.0
16/02:00am NW 9 11 - - - - - - - 20.8 1015.3 0.0
16/01:30am NW 9 9 - - - - - - - 20.7 1015.3 0.0
16/01:00am NW 9 9 - - - - - - - 20.9 1015.7 0.0
16/12:30am NW 9 10 - - - - - - - 21.2 1015.9 0.0
16/12:00am NNW 7 9 - - - - - - - 21.3 1016.1 0.0
 
Date/Time
EST
Wind Sea
Height
m
Swell Vis
km
Cloud Weather Temp
°C
Press
MSL
hPa
Rain since
9am
mm
Dir  Spd
kts
Gust
kts
Height
m
Period
s
Dir
15/11:30pm NNE 1 5 - - - - - - - 21.6 1016.3 0.0
15/11:00pm NNE 2 5 - - - - - - - 21.7 1016.4 0.0
15/10:30pm NNE 6 9 - - - - - - - 21.9 1016.5 0.0
15/10:00pm NNE 8 11 - - - - - - - 21.7 1016.6 0.0
15/09:30pm NNE 9 11 - - - - - - - 21.7 1016.7 0.0
15/09:00pm NNE 8 10 - - - - - - - 21.8 1016.6 0.0
15/08:30pm NE 6 8 - - - - - - - 21.5 1016.5 0.0
15/08:00pm NNE 7 9 - - - - - - - 21.6 1016.4 0.0
15/07:30pm NE 8 11 - - - - - - - 21.7 1016.1 0.0
15/07:00pm NE 7 10 - - - - - - - 21.6 1015.7 0.0
15/06:30pm NE 7 11 - - - - - - - 21.7 1015.4 0.0
15/06:00pm NNE 8 11 - - - - - - - 21.9 1015.1 0.0
15/05:30pm NE 6 9 - - - - - - - 22.5 1015.1 0.0
15/05:00pm NE 6 9 - - - - - - - 23.5 1014.9 0.0
15/04:30pm NE 6 9 - - - - - - - 24.8 1014.8 0.0
15/04:00pm NE 5 8 - - - - - - - 24.1 1014.7 0.0
15/03:30pm NE 5 8 - - - - - - - 24.8 1014.6 0.0
15/03:00pm NE 4 6 - - - - - - - 25.3 1014.6 0.0
15/02:30pm ENE 6 8 - - - - - - - 25.5 1014.7 0.0
15/02:00pm ENE 6 8 - - - - - - - 24.6 1014.8 0.0
15/01:30pm ENE 7 9 - - - - - - - 24.9 1015.0 0.0
15/01:00pm E 7 9 - - - - - - - 24.5 1015.3 0.0
15/12:30pm E 7 9 - - - - - - - 24.7 1015.6 0.0
15/12:00pm ESE 8 10 - - - - - - - 24.5 1015.9 0.0
15/11:30am SE 7 10 - - - - - - - 24.0 1016.4 0.0
15/11:00am SE 6 8 - - - - - - - 23.9 1016.7 0.0
15/10:30am SSE 7 9 - - - - - - - 23.9 1017.0 0.0
15/10:00am SSE 7 9 - - - - - - - 23.4 1017.1 0.0
15/09:30am SSE 6 8 - - - - - - - 23.3 1017.2 0.0
15/09:00am NE 4 6 - - - - - - - 22.8 1017.2 0.0
15/08:30am NE 5 6 - - - - - - - 22.7 1017.2 0.0
15/08:00am NE 4 6 - - - - - - - 22.2 1017.0 0.0
15/07:30am NE 4 5 - - - - - - - 22.0 1017.0 0.0
15/07:00am CALM 0 0 - - - - - - - 21.7 1016.7 0.0
15/06:30am CALM 0 0 - - - - - - - 21.2 1016.4 0.0
15/06:00am CALM 0 0 - - - - - - - 20.6 1016.1 0.0
15/05:30am CALM 0 4 - - - - - - - 20.7 1015.7 0.0
15/05:00am CALM 0 0 - - - - - - - 21.1 1015.5 0.0
15/04:30am NE 3 4 - - - - - - - 21.0 1015.6 0.0
15/04:00am NE 5 7 - - - - - - - 21.2 1015.6 0.0
15/03:30am NE 4 6 - - - - - - - 20.9 1015.6 0.0
15/03:00am NE 5 7 - - - - - - - 20.8 1015.5 0.0
15/02:30am ENE 6 8 - - - - - - - 21.1 1015.7 0.0
15/02:00am ENE 7 9 - - - - - - - 21.1 1016.1 0.0
15/01:30am NE 6 8 - - - - - - - 21.0 1016.4 0.0
15/01:00am NE 5 8 - - - - - - - 20.9 1016.7 0.0
15/12:30am NE 8 11 - - - - - - - 21.4 1017.0 0.0
15/12:00am NE 7 11 - - - - - - - 21.2 1017.3 0.0
 
Date/Time
EST
Wind Sea
Height
m
Swell Vis
km
Cloud Weather Temp
°C
Press
MSL
hPa
Rain since
9am
mm
Dir  Spd
kts
Gust
kts
Height
m
Period
s
Dir
14/11:30pm ENE 9 11 - - - - - - - 21.6 1017.7 0.0
14/11:00pm ENE 7 9 - - - - - - - 21.7 1017.9 0.0
14/10:30pm E 9 11 - - - - - - - 21.5 1018.0 0.0
14/10:00pm E 9 11 - - - - - - - 21.6 1018.3 0.0
14/09:30pm E 9 11 - - - - - - - 21.6 1018.4 0.0
14/09:00pm E 9 12 - - - - - - - 21.6 1018.1 0.0
14/08:30pm ENE 10 12 - - - - - - - 21.9 1017.8 0.0
14/08:00pm E 10 11 - - - - - - - 21.5 1017.7 0.0
14/07:30pm E 10 13 - - - - - - - 21.5 1017.4 0.0
14/07:00pm E 10 12 - - - - - - - 21.5 1017.2 0.0
14/06:30pm ESE 9 11 - - - - - - - 21.4 1016.8 0.0
14/06:00pm ESE 9 11 - - - - - - - 21.4 1016.8 0.0
14/05:30pm ESE 9 11 - - - - - - - 21.5 1016.6 0.0
14/05:00pm E 9 11 - - - - - - - 22.0 1016.6 0.0
14/04:30pm ESE 8 11 - - - - - - - 22.1 1016.5 0.0
14/04:00pm SE 8 10 - - - - - - - 22.2 1016.4 0.0
14/03:30pm SE 10 12 - - - - - - - 22.5 1016.4 0.0
14/03:00pm SE 11 13 - - - - - - - 22.8 1016.6 0.0
14/02:30pm SSE 11 13 - - - - - - - 23.0 1016.7 0.0
14/02:00pm SSE 12 14 - - - - - - - 23.2 1016.8 0.0
14/01:30pm SSE 12 14 - - - - - - - 23.3 1017.0 0.0
14/01:00pm SSE 13 17 - - - - - - - 23.1 1017.3 0.0
14/12:30pm S 12 16 - - - - - - - 23.3 1017.6 0.0
14/12:00pm SSE 11 15 - - - - - - - 22.9 1018.2 0.0
14/11:30am ESE 7 9 - - - - - - - 25.0 1018.5 0.0
14/11:00am SE 10 12 - - - - - - - 24.2 1018.8 0.0
14/10:30am SE 11 13 - - - - - - - 24.1 1019.1 0.0
14/10:00am S 13 17 - - - - - - - 22.0 1019.2 0.0
14/09:30am S 14 17 - - - - - - - 21.7 1019.3 0.0
14/09:00am S 15 19 - - - - - - - 20.8 1019.3 0.0
14/08:30am S 14 20 - - - - - - - 21.1 1019.3 0.0
14/08:00am SE 12 16 - - - - - - - 22.8 1019.2 0.0
14/07:30am SSE 10 13 - - - - - - - 21.8 1018.9 0.0
14/07:00am S 13 16 - - - - - - - 20.0 1018.5 0.0
14/06:30am SSW 13 17 - - - - - - - 19.1 1018.3 0.0
14/06:00am SSW 11 14 - - - - - - - 18.9 1018.1 0.0
14/05:30am SSE 13 17 - - - - - - - 20.8 1017.9 0.0
14/05:00am SE 14 17 - - - - - - - 21.0 1017.8 0.0
14/04:30am SE 12 16 - - - - - - - 20.8 1017.8 0.0
14/04:00am SE 12 15 - - - - - - - 20.9 1017.9 0.0
14/03:30am ESE 12 15 - - - - - - - 21.1 1017.9 0.0
14/03:00am ESE 13 16 - - - - - - - 21.2 1018.0 0.0
14/02:30am ESE 13 17 - - - - - - - 21.2 1018.2 0.0
14/02:00am E 12 15 - - - - - - - 21.3 1018.5 0.0
14/01:30am ESE 12 15 - - - - - - - 21.2 1018.8 0.0
14/01:00am ESE 14 17 - - - - - - - 21.2 1019.0 0.0
14/12:30am ESE 13 16 - - - - - - - 21.2 1019.2 0.0

Other formats

Comma delimited format used in spreadsheet applications
http://www.bom.gov.au/fwo/IDQ60701/IDQ60701.94584.axf

JavaScript Object Notation format (JSON) in row-major order
http://www.bom.gov.au/fwo/IDQ60701/IDQ60701.94584.json

Data quality

Most of these data are generated automatically and are frequently updated. Quality checks on data are not normally performed. It is possible for incorrect values to appear. Refer to information at About Latest Weather Observations and please check the disclaimer before using these data.